sensor_id;sensor_type;location;lat;lon;timestamp;P1;durP1;ratioP1;P2;durP2;ratioP2
62457;SDS011;48509;52.122;5.250;2022-09-09T00:01:51;3.4;;;2.1;;
62457;SDS011;48509;52.122;5.250;2022-09-09T00:03:36;6.1;;;2.21;;
62457;SDS011;48509;52.122;5.250;2022-09-09T00:05:20;4.2;;;2.4;;
62457;SDS011;48509;52.122;5.250;2022-09-09T00:07:06;3.5;;;2.7;;
62457;SDS011;48509;52.122;5.250;2022-09-09T00:08:53;4.0;;;2.7;;
62457;SDS011;48509;52.122;5.250;2022-09-09T00:12:18;5.4;;;2.21;;
62457;SDS011;48509;52.122;5.250;2022-09-09T00:14:13;4.8;;;2.8;;
62457;SDS011;48509;52.122;5.250;2022-09-09T00:15:59;4.61;;;2.9;;
62457;SDS011;48509;52.122;5.250;2022-09-09T00:17:42;3.5;;;2.9;;
62457;SDS011;48509;52.122;5.250;2022-09-09T00:19:28;5.6;;;3.0;;
62457;SDS011;48509;52.122;5.250;2022-09-09T00:22:55;5.0;;;2.6;;
62457;SDS011;48509;52.122;5.250;2022-09-09T00:24:41;3.6;;;2.6;;
62457;SDS011;48509;52.122;5.250;2022-09-09T00:26:21;4.2;;;2.6;;
62457;SDS011;48509;52.122;5.250;2022-09-09T00:28:09;5.4;;;3.0;;
62457;SDS011;48509;52.122;5.250;2022-09-09T00:29:54;6.1;;;2.8;;
62457;SDS011;48509;52.122;5.250;2022-09-09T00:33:16;5.8;;;3.4;;
62457;SDS011;48509;52.122;5.250;2022-09-09T00:34:56;4.91;;;2.8;;
62457;SDS011;48509;52.122;5.250;2022-09-09T00:36:38;6.1;;;3.7;;
62457;SDS011;48509;52.122;5.250;2022-09-09T00:38:15;8.1;;;3.2;;
62457;SDS011;48509;52.122;5.250;2022-09-09T00:41:41;4.2;;;3.1;;
62457;SDS011;48509;52.122;5.250;2022-09-09T00:43:38;3.7;;;2.8;;
62457;SDS011;48509;52.122;5.250;2022-09-09T00:45:19;6.6;;;4.5;;
62457;SDS011;48509;52.122;5.250;2022-09-09T00:47:27;6.5;;;4.1;;
62457;SDS011;48509;52.122;5.250;2022-09-09T00:49:33;4.5;;;3.4;;
62457;SDS011;48509;52.122;5.250;2022-09-09T00:51:23;5.6;;;3.8;;
62457;SDS011;48509;52.122;5.250;2022-09-09T00:53:16;4.8;;;2.8;;
62457;SDS011;48509;52.122;5.250;2022-09-09T00:55:07;6.7;;;3.8;;
62457;SDS011;48509;52.122;5.250;2022-09-09T00:56:53;6.4;;;3.9;;
62457;SDS011;48509;52.122;5.250;2022-09-09T01:00:27;8.1;;;3.6;;
62457;SDS011;48509;52.122;5.250;2022-09-09T01:02:12;7.0;;;4.1;;
62457;SDS011;48509;52.122;5.250;2022-09-09T01:03:54;6.9;;;4.41;;
62457;SDS011;48509;52.122;5.250;2022-09-09T01:05:33;6.9;;;4.41;;
62457;SDS011;48509;52.122;5.250;2022-09-09T01:09:00;3.6;;;3.3;;
62457;SDS011;48509;52.122;5.250;2022-09-09T01:10:57;8.71;;;4.8;;
62457;SDS011;48509;52.122;5.250;2022-09-09T01:12:37;6.1;;;4.3;;
62457;SDS011;48509;52.122;5.250;2022-09-09T01:14:24;4.7;;;3.7;;
62457;SDS011;48509;52.122;5.250;2022-09-09T01:16:09;7.9;;;5.0;;
62457;SDS011;48509;52.122;5.250;2022-09-09T01:17:50;9.5;;;6.0;;
62457;SDS011;48509;52.122;5.250;2022-09-09T01:21:27;7.0;;;4.91;;
62457;SDS011;48509;52.122;5.250;2022-09-09T01:23:17;6.4;;;4.1;;
62457;SDS011;48509;52.122;5.250;2022-09-09T01:25:15;8.31;;;5.3;;
62457;SDS011;48509;52.122;5.250;2022-09-09T01:27:50;6.2;;;4.8;;
62457;SDS011;48509;52.122;5.250;2022-09-09T01:29:31;5.4;;;4.0;;
62457;SDS011;48509;52.122;5.250;2022-09-09T01:31:09;6.1;;;4.5;;
62457;SDS011;48509;52.122;5.250;2022-09-09T01:32:50;6.1;;;3.8;;
62457;SDS011;48509;52.122;5.250;2022-09-09T01:34:33;7.9;;;5.2;;
62457;SDS011;48509;52.122;5.250;2022-09-09T01:38:00;5.5;;;4.5;;
62457;SDS011;48509;52.122;5.250;2022-09-09T01:41:18;6.3;;;4.7;;
62457;SDS011;48509;52.122;5.250;2022-09-09T01:42:55;7.2;;;4.1;;
62457;SDS011;48509;52.122;5.250;2022-09-09T01:46:10;11.3;;;6.1;;
62457;SDS011;48509;52.122;5.250;2022-09-09T01:47:48;4.8;;;4.3;;
62457;SDS011;48509;52.122;5.250;2022-09-09T01:49:26;8.4;;;5.9;;
62457;SDS011;48509;52.122;5.250;2022-09-09T01:52:39;8.5;;;6.0;;
62457;SDS011;48509;52.122;5.250;2022-09-09T01:54:16;6.8;;;5.0;;
62457;SDS011;48509;52.122;5.250;2022-09-09T01:55:56;9.4;;;5.11;;
62457;SDS011;48509;52.122;5.250;2022-09-09T01:57:42;8.1;;;6.3;;
62457;SDS011;48509;52.122;5.250;2022-09-09T02:01:26;7.9;;;5.11;;
62457;SDS011;48509;52.122;5.250;2022-09-09T02:03:20;8.4;;;5.2;;
62457;SDS011;48509;52.122;5.250;2022-09-09T02:05:04;7.6;;;5.3;;
62457;SDS011;48509;52.122;5.250;2022-09-09T02:06:52;13.6;;;4.91;;
62457;SDS011;48509;52.122;5.250;2022-09-09T02:08:33;11.0;;;6.3;;
62457;SDS011;48509;52.122;5.250;2022-09-09T02:10:19;6.0;;;4.5;;
62457;SDS011;48509;52.122;5.250;2022-09-09T02:13:48;7.9;;;5.5;;
62457;SDS011;48509;52.122;5.250;2022-09-09T02:15:30;6.4;;;5.4;;
62457;SDS011;48509;52.122;5.250;2022-09-09T02:17:15;9.1;;;7.0;;
62457;SDS011;48509;52.122;5.250;2022-09-09T02:19:00;12.4;;;6.2;;
62457;SDS011;48509;52.122;5.250;2022-09-09T02:20:41;10.8;;;7.2;;
62457;SDS011;48509;52.122;5.250;2022-09-09T02:24:00;10.6;;;8.1;;
62457;SDS011;48509;52.122;5.250;2022-09-09T02:25:41;8.31;;;6.8;;
62457;SDS011;48509;52.122;5.250;2022-09-09T02:27:19;8.81;;;5.7;;
62457;SDS011;48509;52.122;5.250;2022-09-09T02:28:58;8.6;;;5.5;;
62457;SDS011;48509;52.122;5.250;2022-09-09T02:32:19;7.4;;;6.1;;
62457;SDS011;48509;52.122;5.250;2022-09-09T02:33:59;8.1;;;6.4;;
62457;SDS011;48509;52.122;5.250;2022-09-09T02:35:37;11.0;;;7.2;;
62457;SDS011;48509;52.122;5.250;2022-09-09T02:37:19;8.4;;;5.6;;
62457;SDS011;48509;52.122;5.250;2022-09-09T02:40:35;10.4;;;6.6;;
62457;SDS011;48509;52.122;5.250;2022-09-09T02:42:11;7.1;;;5.2;;
62457;SDS011;48509;52.122;5.250;2022-09-09T02:43:47;12.0;;;7.7;;
62457;SDS011;48509;52.122;5.250;2022-09-09T02:47:12;7.3;;;5.11;;
62457;SDS011;48509;52.122;5.250;2022-09-09T02:49:01;9.6;;;6.8;;
62457;SDS011;48509;52.122;5.250;2022-09-09T02:50:46;6.1;;;5.3;;
62457;SDS011;48509;52.122;5.250;2022-09-09T02:52:32;9.71;;;5.7;;
62457;SDS011;48509;52.122;5.250;2022-09-09T02:54:20;7.5;;;5.6;;
62457;SDS011;48509;52.122;5.250;2022-09-09T02:57:47;10.4;;;6.5;;
62457;SDS011;48509;52.122;5.250;2022-09-09T02:59:25;8.2;;;5.6;;
62457;SDS011;48509;52.122;5.250;2022-09-09T03:01:02;12.4;;;7.9;;
62457;SDS011;48509;52.122;5.250;2022-09-09T03:02:39;8.31;;;6.9;;
62457;SDS011;48509;52.122;5.250;2022-09-09T03:05:51;11.4;;;8.6;;
62457;SDS011;48509;52.122;5.250;2022-09-09T03:07:27;9.6;;;7.2;;
62457;SDS011;48509;52.122;5.250;2022-09-09T03:09:04;10.1;;;7.1;;
62457;SDS011;48509;52.122;5.250;2022-09-09T03:12:16;9.9;;;7.3;;
62457;SDS011;48509;52.122;5.250;2022-09-09T03:13:53;9.9;;;7.3;;
62457;SDS011;48509;52.122;5.250;2022-09-09T03:15:31;12.2;;;7.7;;
62457;SDS011;48509;52.122;5.250;2022-09-09T03:17:09;8.9;;;6.3;;
62457;SDS011;48509;52.122;5.250;2022-09-09T03:20:22;14.7;;;7.4;;
62457;SDS011;48509;52.122;5.250;2022-09-09T03:22:00;11.3;;;8.81;;
62457;SDS011;48509;52.122;5.250;2022-09-09T03:23:36;12.3;;;8.71;;
62457;SDS011;48509;52.122;5.250;2022-09-09T03:26:50;13.4;;;9.0;;
62457;SDS011;48509;52.122;5.250;2022-09-09T03:28:31;14.2;;;8.81;;
62457;SDS011;48509;52.122;5.250;2022-09-09T03:30:07;11.2;;;8.81;;
62457;SDS011;48509;52.122;5.250;2022-09-09T03:31:44;11.0;;;7.4;;
62457;SDS011;48509;52.122;5.250;2022-09-09T03:34:56;10.3;;;7.6;;
62457;SDS011;48509;52.122;5.250;2022-09-09T03:36:33;8.71;;;6.7;;
62457;SDS011;48509;52.122;5.250;2022-09-09T03:38:10;12.0;;;8.6;;
62457;SDS011;48509;52.122;5.250;2022-09-09T03:41:24;7.8;;;6.4;;
62457;SDS011;48509;52.122;5.250;2022-09-09T03:43:01;8.81;;;7.8;;
62457;SDS011;48509;52.122;5.250;2022-09-09T03:44:37;11.1;;;7.7;;
62457;SDS011;48509;52.122;5.250;2022-09-09T03:47:50;11.2;;;8.71;;
62457;SDS011;48509;52.122;5.250;2022-09-09T03:49:28;11.3;;;8.6;;
62457;SDS011;48509;52.122;5.250;2022-09-09T03:51:05;12.2;;;8.5;;
62457;SDS011;48509;52.122;5.250;2022-09-09T03:52:42;8.71;;;6.6;;
62457;SDS011;48509;52.122;5.250;2022-09-09T03:55:55;9.4;;;6.8;;
62457;SDS011;48509;52.122;5.250;2022-09-09T03:57:34;8.2;;;6.1;;
62457;SDS011;48509;52.122;5.250;2022-09-09T03:59:11;11.7;;;8.1;;
62457;SDS011;48509;52.122;5.250;2022-09-09T04:02:30;11.5;;;7.7;;
62457;SDS011;48509;52.122;5.250;2022-09-09T04:04:08;12.9;;;8.6;;
62457;SDS011;48509;52.122;5.250;2022-09-09T04:05:48;14.9;;;10.21;;
62457;SDS011;48509;52.122;5.250;2022-09-09T04:07:25;10.9;;;8.5;;
62457;SDS011;48509;52.122;5.250;2022-09-09T04:10:39;10.9;;;7.1;;
62457;SDS011;48509;52.122;5.250;2022-09-09T04:12:16;16.7;;;10.9;;
62457;SDS011;48509;52.122;5.250;2022-09-09T04:13:52;8.31;;;6.1;;
62457;SDS011;48509;52.122;5.250;2022-09-09T04:17:06;9.71;;;7.8;;
62457;SDS011;48509;52.122;5.250;2022-09-09T04:18:41;16.3;;;9.4;;
62457;SDS011;48509;52.122;5.250;2022-09-09T04:20:19;11.3;;;8.4;;
62457;SDS011;48509;52.122;5.250;2022-09-09T04:21:55;11.4;;;8.81;;
62457;SDS011;48509;52.122;5.250;2022-09-09T04:25:08;10.8;;;8.0;;
62457;SDS011;48509;52.122;5.250;2022-09-09T04:26:45;11.4;;;9.4;;
62457;SDS011;48509;52.122;5.250;2022-09-09T04:28:23;12.2;;;8.2;;
62457;SDS011;48509;52.122;5.250;2022-09-09T04:31:41;13.7;;;8.0;;
62457;SDS011;48509;52.122;5.250;2022-09-09T04:33:17;12.0;;;7.7;;
62457;SDS011;48509;52.122;5.250;2022-09-09T04:34:54;16.3;;;12.9;;
62457;SDS011;48509;52.122;5.250;2022-09-09T04:36:30;11.4;;;8.81;;
62457;SDS011;48509;52.122;5.250;2022-09-09T04:39:45;14.5;;;8.5;;
62457;SDS011;48509;52.122;5.250;2022-09-09T04:41:21;11.0;;;7.9;;
62457;SDS011;48509;52.122;5.250;2022-09-09T04:42:58;8.0;;;6.7;;
62457;SDS011;48509;52.122;5.250;2022-09-09T04:46:11;10.6;;;8.4;;
62457;SDS011;48509;52.122;5.250;2022-09-09T04:47:47;14.5;;;10.0;;
62457;SDS011;48509;52.122;5.250;2022-09-09T04:49:23;13.9;;;9.5;;
62457;SDS011;48509;52.122;5.250;2022-09-09T04:52:37;13.2;;;7.5;;
62457;SDS011;48509;52.122;5.250;2022-09-09T04:54:13;14.8;;;9.31;;
62457;SDS011;48509;52.122;5.250;2022-09-09T04:55:50;14.6;;;8.71;;
62457;SDS011;48509;52.122;5.250;2022-09-09T04:57:26;15.1;;;10.0;;
62457;SDS011;48509;52.122;5.250;2022-09-09T05:00:38;11.6;;;7.6;;
62457;SDS011;48509;52.122;5.250;2022-09-09T05:02:14;15.9;;;10.8;;
62457;SDS011;48509;52.122;5.250;2022-09-09T05:03:51;11.8;;;7.0;;
62457;SDS011;48509;52.122;5.250;2022-09-09T05:07:04;10.0;;;6.9;;
62457;SDS011;48509;52.122;5.250;2022-09-09T05:08:40;11.5;;;8.31;;
62457;SDS011;48509;52.122;5.250;2022-09-09T05:10:18;10.3;;;7.6;;
62457;SDS011;48509;52.122;5.250;2022-09-09T05:13:34;11.0;;;7.4;;
62457;SDS011;48509;52.122;5.250;2022-09-09T05:15:10;11.3;;;6.8;;
62457;SDS011;48509;52.122;5.250;2022-09-09T05:16:47;12.4;;;7.9;;
62457;SDS011;48509;52.122;5.250;2022-09-09T05:18:23;11.2;;;7.8;;
62457;SDS011;48509;52.122;5.250;2022-09-09T05:21:35;15.9;;;8.81;;
62457;SDS011;48509;52.122;5.250;2022-09-09T05:23:13;11.6;;;7.6;;
62457;SDS011;48509;52.122;5.250;2022-09-09T05:24:50;11.9;;;9.5;;
62457;SDS011;48509;52.122;5.250;2022-09-09T05:28:02;12.1;;;8.0;;
62457;SDS011;48509;52.122;5.250;2022-09-09T05:29:38;13.5;;;7.5;;
62457;SDS011;48509;52.122;5.250;2022-09-09T05:31:16;16.11;;;9.9;;
62457;SDS011;48509;52.122;5.250;2022-09-09T05:34:32;16.11;;;10.3;;
62457;SDS011;48509;52.122;5.250;2022-09-09T05:36:09;10.1;;;7.8;;
62457;SDS011;48509;52.122;5.250;2022-09-09T05:37:47;8.0;;;5.7;;
62457;SDS011;48509;52.122;5.250;2022-09-09T05:39:23;13.4;;;8.31;;
62457;SDS011;48509;52.122;5.250;2022-09-09T05:42:37;14.8;;;7.4;;
62457;SDS011;48509;52.122;5.250;2022-09-09T05:44:13;10.7;;;5.7;;
62457;SDS011;48509;52.122;5.250;2022-09-09T05:45:58;10.7;;;5.7;;
62457;SDS011;48509;52.122;5.250;2022-09-09T05:49:12;12.6;;;6.6;;
62457;SDS011;48509;52.122;5.250;2022-09-09T05:50:52;8.9;;;6.4;;
62457;SDS011;48509;52.122;5.250;2022-09-09T05:52:29;13.7;;;6.9;;
62457;SDS011;48509;52.122;5.250;2022-09-09T05:54:05;13.0;;;7.1;;
62457;SDS011;48509;52.122;5.250;2022-09-09T05:57:19;13.0;;;6.9;;
62457;SDS011;48509;52.122;5.250;2022-09-09T05:58:55;16.7;;;8.0;;
62457;SDS011;48509;52.122;5.250;2022-09-09T06:00:32;8.81;;;5.7;;
62457;SDS011;48509;52.122;5.250;2022-09-09T06:03:45;13.3;;;6.9;;
62457;SDS011;48509;52.122;5.250;2022-09-09T06:05:23;11.6;;;5.5;;
62457;SDS011;48509;52.122;5.250;2022-09-09T06:07:00;6.9;;;4.61;;
62457;SDS011;48509;52.122;5.250;2022-09-09T06:08:38;12.4;;;6.0;;
62457;SDS011;48509;52.122;5.250;2022-09-09T06:11:54;11.2;;;6.2;;
62457;SDS011;48509;52.122;5.250;2022-09-09T06:13:30;15.7;;;7.2;;
62457;SDS011;48509;52.122;5.250;2022-09-09T06:15:09;11.1;;;5.6;;
62457;SDS011;48509;52.122;5.250;2022-09-09T06:18:22;15.1;;;6.5;;
62457;SDS011;48509;52.122;5.250;2022-09-09T06:19:59;12.2;;;5.7;;
62457;SDS011;48509;52.122;5.250;2022-09-09T06:21:36;9.1;;;4.8;;
62457;SDS011;48509;52.122;5.250;2022-09-09T06:23:13;13.0;;;5.2;;
62457;SDS011;48509;52.122;5.250;2022-09-09T06:26:26;10.5;;;5.4;;
62457;SDS011;48509;52.122;5.250;2022-09-09T06:28:03;14.2;;;5.4;;
62457;SDS011;48509;52.122;5.250;2022-09-09T06:29:39;11.3;;;5.11;;
62457;SDS011;48509;52.122;5.250;2022-09-09T06:32:55;13.9;;;6.1;;
62457;SDS011;48509;52.122;5.250;2022-09-09T06:34:32;14.3;;;6.4;;
62457;SDS011;48509;52.122;5.250;2022-09-09T06:36:10;20.9;;;7.8;;
62457;SDS011;48509;52.122;5.250;2022-09-09T06:37:48;16.0;;;6.9;;
62457;SDS011;48509;52.122;5.250;2022-09-09T06:41:02;12.2;;;5.8;;
62457;SDS011;48509;52.122;5.250;2022-09-09T06:42:38;15.7;;;5.3;;
62457;SDS011;48509;52.122;5.250;2022-09-09T06:44:15;12.5;;;5.2;;
62457;SDS011;48509;52.122;5.250;2022-09-09T06:47:30;14.6;;;4.91;;
62457;SDS011;48509;52.122;5.250;2022-09-09T06:49:07;15.3;;;5.2;;
62457;SDS011;48509;52.122;5.250;2022-09-09T06:50:43;17.11;;;5.7;;
62457;SDS011;48509;52.122;5.250;2022-09-09T06:53:56;17.11;;;5.7;;
62457;SDS011;48509;52.122;5.250;2022-09-09T06:55:34;19.0;;;6.4;;
62457;SDS011;48509;52.122;5.250;2022-09-09T06:57:11;15.5;;;5.6;;
62457;SDS011;48509;52.122;5.250;2022-09-09T06:58:49;14.4;;;5.0;;
62457;SDS011;48509;52.122;5.250;2022-09-09T07:02:03;13.4;;;4.41;;
62457;SDS011;48509;52.122;5.250;2022-09-09T07:03:39;15.3;;;5.7;;
62457;SDS011;48509;52.122;5.250;2022-09-09T07:05:16;12.8;;;4.41;;
62457;SDS011;48509;52.122;5.250;2022-09-09T07:08:28;16.61;;;4.61;;
62457;SDS011;48509;52.122;5.250;2022-09-09T07:10:04;12.9;;;4.91;;
62457;SDS011;48509;52.122;5.250;2022-09-09T07:11:42;12.6;;;4.0;;
62457;SDS011;48509;52.122;5.250;2022-09-09T07:15:01;17.8;;;4.61;;
62457;SDS011;48509;52.122;5.250;2022-09-09T07:16:37;16.2;;;4.8;;
62457;SDS011;48509;52.122;5.250;2022-09-09T07:18:13;14.7;;;4.7;;
62457;SDS011;48509;52.122;5.250;2022-09-09T07:19:49;18.5;;;5.0;;
62457;SDS011;48509;52.122;5.250;2022-09-09T07:23:04;11.3;;;3.8;;
62457;SDS011;48509;52.122;5.250;2022-09-09T07:24:40;14.7;;;4.8;;
62457;SDS011;48509;52.122;5.250;2022-09-09T07:26:17;15.6;;;4.2;;
62457;SDS011;48509;52.122;5.250;2022-09-09T07:29:33;15.9;;;4.3;;
62457;SDS011;48509;52.122;5.250;2022-09-09T07:32:51;11.8;;;4.5;;
62457;SDS011;48509;52.122;5.250;2022-09-09T07:34:27;12.8;;;3.8;;
62457;SDS011;48509;52.122;5.250;2022-09-09T07:37:43;16.9;;;4.1;;
62457;SDS011;48509;52.122;5.250;2022-09-09T07:39:20;15.7;;;4.1;;
62457;SDS011;48509;52.122;5.250;2022-09-09T07:41:02;11.1;;;3.9;;
62457;SDS011;48509;52.122;5.250;2022-09-09T07:42:39;11.9;;;4.1;;
62457;SDS011;48509;52.122;5.250;2022-09-09T07:45:56;12.6;;;4.0;;
62457;SDS011;48509;52.122;5.250;2022-09-09T07:47:34;16.2;;;4.0;;
62457;SDS011;48509;52.122;5.250;2022-09-09T07:49:10;10.9;;;3.4;;
62457;SDS011;48509;52.122;5.250;2022-09-09T07:52:23;14.3;;;3.8;;
62457;SDS011;48509;52.122;5.250;2022-09-09T07:54:00;16.11;;;4.8;;
62457;SDS011;48509;52.122;5.250;2022-09-09T07:55:38;15.0;;;4.0;;
62457;SDS011;48509;52.122;5.250;2022-09-09T07:58:52;11.8;;;4.0;;
62457;SDS011;48509;52.122;5.250;2022-09-09T08:00:30;13.9;;;3.9;;
62457;SDS011;48509;52.122;5.250;2022-09-09T08:02:06;13.3;;;3.7;;
62457;SDS011;48509;52.122;5.250;2022-09-09T08:03:44;12.6;;;3.8;;
62457;SDS011;48509;52.122;5.250;2022-09-09T08:07:04;13.2;;;3.6;;
62457;SDS011;48509;52.122;5.250;2022-09-09T08:08:41;16.11;;;4.1;;
62457;SDS011;48509;52.122;5.250;2022-09-09T08:10:18;11.5;;;3.9;;
62457;SDS011;48509;52.122;5.250;2022-09-09T08:13:33;15.0;;;4.1;;
62457;SDS011;48509;52.122;5.250;2022-09-09T08:15:10;11.8;;;3.4;;
62457;SDS011;48509;52.122;5.250;2022-09-09T08:16:48;14.7;;;3.6;;
62457;SDS011;48509;52.122;5.250;2022-09-09T08:18:26;10.9;;;3.7;;
62457;SDS011;48509;52.122;5.250;2022-09-09T08:21:42;12.7;;;3.5;;
62457;SDS011;48509;52.122;5.250;2022-09-09T08:23:20;12.8;;;3.3;;
62457;SDS011;48509;52.122;5.250;2022-09-09T08:24:57;13.8;;;3.1;;
62457;SDS011;48509;52.122;5.250;2022-09-09T08:28:12;11.8;;;3.2;;
62457;SDS011;48509;52.122;5.250;2022-09-09T08:29:48;10.0;;;3.2;;
62457;SDS011;48509;52.122;5.250;2022-09-09T08:31:25;11.5;;;3.3;;
62457;SDS011;48509;52.122;5.250;2022-09-09T08:33:05;14.2;;;3.5;;
62457;SDS011;48509;52.122;5.250;2022-09-09T08:36:19;13.7;;;3.3;;
62457;SDS011;48509;52.122;5.250;2022-09-09T08:37:58;11.0;;;3.1;;
62457;SDS011;48509;52.122;5.250;2022-09-09T08:39:34;14.4;;;3.6;;
62457;SDS011;48509;52.122;5.250;2022-09-09T08:43:42;11.4;;;3.1;;
62457;SDS011;48509;52.122;5.250;2022-09-09T08:47:08;12.3;;;3.1;;
62457;SDS011;48509;52.122;5.250;2022-09-09T08:49:00;12.5;;;3.1;;
62457;SDS011;48509;52.122;5.250;2022-09-09T08:50:43;12.0;;;3.3;;
62457;SDS011;48509;52.122;5.250;2022-09-09T08:52:21;12.1;;;3.2;;
62457;SDS011;48509;52.122;5.250;2022-09-09T08:54:03;11.7;;;3.4;;
62457;SDS011;48509;52.122;5.250;2022-09-09T08:57:21;13.4;;;3.1;;
62457;SDS011;48509;52.122;5.250;2022-09-09T08:59:03;12.5;;;3.5;;
62457;SDS011;48509;52.122;5.250;2022-09-09T09:00:43;13.6;;;3.6;;
62457;SDS011;48509;52.122;5.250;2022-09-09T09:02:46;15.1;;;3.7;;
62457;SDS011;48509;52.122;5.250;2022-09-09T09:04:38;9.5;;;3.1;;
62457;SDS011;48509;52.122;5.250;2022-09-09T09:06:31;12.1;;;3.0;;
62457;SDS011;48509;52.122;5.250;2022-09-09T09:10:10;12.8;;;3.6;;
62457;SDS011;48509;52.122;5.250;2022-09-09T09:12:00;12.3;;;3.2;;
62457;SDS011;48509;52.122;5.250;2022-09-09T09:13:44;12.7;;;2.9;;
62457;SDS011;48509;52.122;5.250;2022-09-09T09:15:30;12.3;;;3.1;;
62457;SDS011;48509;52.122;5.250;2022-09-09T09:17:13;11.8;;;3.4;;
62457;SDS011;48509;52.122;5.250;2022-09-09T09:18:55;14.3;;;3.0;;
62457;SDS011;48509;52.122;5.250;2022-09-09T09:22:20;13.4;;;3.4;;
62457;SDS011;48509;52.122;5.250;2022-09-09T09:23:59;15.3;;;3.3;;
62457;SDS011;48509;52.122;5.250;2022-09-09T09:25:37;14.3;;;3.4;;
62457;SDS011;48509;52.122;5.250;2022-09-09T09:27:20;12.8;;;3.1;;
62457;SDS011;48509;52.122;5.250;2022-09-09T09:30:49;11.2;;;3.1;;
62457;SDS011;48509;52.122;5.250;2022-09-09T09:32:31;10.3;;;2.9;;
62457;SDS011;48509;52.122;5.250;2022-09-09T09:34:12;13.8;;;3.3;;
62457;SDS011;48509;52.122;5.250;2022-09-09T09:35:48;12.1;;;3.1;;
62457;SDS011;48509;52.122;5.250;2022-09-09T09:39:06;15.3;;;2.9;;
62457;SDS011;48509;52.122;5.250;2022-09-09T09:40:50;13.7;;;3.0;;
62457;SDS011;48509;52.122;5.250;2022-09-09T09:42:29;14.5;;;3.2;;
62457;SDS011;48509;52.122;5.250;2022-09-09T09:44:06;12.4;;;2.9;;
62457;SDS011;48509;52.122;5.250;2022-09-09T09:47:40;11.3;;;2.9;;
62457;SDS011;48509;52.122;5.250;2022-09-09T09:49:17;15.6;;;3.0;;
62457;SDS011;48509;52.122;5.250;2022-09-09T09:50:54;15.8;;;3.4;;
62457;SDS011;48509;52.122;5.250;2022-09-09T09:52:34;17.0;;;4.0;;
62457;SDS011;48509;52.122;5.250;2022-09-09T09:55:59;17.41;;;3.9;;
62457;SDS011;48509;52.122;5.250;2022-09-09T09:57:39;14.2;;;3.8;;
62457;SDS011;48509;52.122;5.250;2022-09-09T09:59:19;15.4;;;4.0;;
62457;SDS011;48509;52.122;5.250;2022-09-09T10:01:18;13.9;;;3.7;;
62457;SDS011;48509;52.122;5.250;2022-09-09T10:02:58;11.3;;;3.3;;
62457;SDS011;48509;52.122;5.250;2022-09-09T10:06:12;12.8;;;3.8;;
62457;SDS011;48509;52.122;5.250;2022-09-09T10:07:59;12.7;;;3.7;;
62457;SDS011;48509;52.122;5.250;2022-09-09T10:09:37;13.2;;;4.2;;
62457;SDS011;48509;52.122;5.250;2022-09-09T10:11:19;13.7;;;4.2;;
62457;SDS011;48509;52.122;5.250;2022-09-09T10:14:52;14.7;;;4.2;;
62457;SDS011;48509;52.122;5.250;2022-09-09T10:16:42;14.7;;;3.9;;
62457;SDS011;48509;52.122;5.250;2022-09-09T10:18:36;14.5;;;4.2;;
62457;SDS011;48509;52.122;5.250;2022-09-09T10:20:28;14.5;;;3.8;;
62457;SDS011;48509;52.122;5.250;2022-09-09T10:22:15;12.3;;;3.4;;
62457;SDS011;48509;52.122;5.250;2022-09-09T10:24:07;15.4;;;4.2;;
62457;SDS011;48509;52.122;5.250;2022-09-09T10:26:05;16.3;;;4.0;;
62457;SDS011;48509;52.122;5.250;2022-09-09T10:28:14;19.3;;;4.2;;
62457;SDS011;48509;52.122;5.250;2022-09-09T10:30:58;14.0;;;3.7;;
62457;SDS011;48509;52.122;5.250;2022-09-09T10:32:54;13.5;;;4.1;;
62457;SDS011;48509;52.122;5.250;2022-09-09T10:34:46;12.8;;;3.9;;
62457;SDS011;48509;52.122;5.250;2022-09-09T10:36:32;12.8;;;3.6;;
62457;SDS011;48509;52.122;5.250;2022-09-09T10:39:56;15.3;;;4.0;;
62457;SDS011;48509;52.122;5.250;2022-09-09T10:41:53;12.5;;;4.2;;
62457;SDS011;48509;52.122;5.250;2022-09-09T10:43:43;21.8;;;4.2;;
62457;SDS011;48509;52.122;5.250;2022-09-09T10:45:36;14.5;;;4.41;;
62457;SDS011;48509;52.122;5.250;2022-09-09T10:47:28;15.9;;;4.91;;
62457;SDS011;48509;52.122;5.250;2022-09-09T10:49:26;15.1;;;4.41;;
62457;SDS011;48509;52.122;5.250;2022-09-09T10:51:23;14.0;;;4.61;;
62457;SDS011;48509;52.122;5.250;2022-09-09T10:53:08;14.2;;;4.5;;
62457;SDS011;48509;52.122;5.250;2022-09-09T10:56:36;11.5;;;3.6;;
62457;SDS011;48509;52.122;5.250;2022-09-09T10:58:14;15.2;;;4.7;;
62457;SDS011;48509;52.122;5.250;2022-09-09T11:00:01;11.6;;;3.5;;
62457;SDS011;48509;52.122;5.250;2022-09-09T11:01:43;15.1;;;5.11;;
62457;SDS011;48509;52.122;5.250;2022-09-09T11:05:03;14.0;;;4.1;;
62457;SDS011;48509;52.122;5.250;2022-09-09T11:06:53;18.3;;;4.2;;
62457;SDS011;48509;52.122;5.250;2022-09-09T11:08:31;14.8;;;4.1;;
62457;SDS011;48509;52.122;5.250;2022-09-09T11:10:16;13.9;;;4.2;;
62457;SDS011;48509;52.122;5.250;2022-09-09T11:12:00;13.0;;;3.6;;
62457;SDS011;48509;52.122;5.250;2022-09-09T11:15:23;12.9;;;3.8;;
62457;SDS011;48509;52.122;5.250;2022-09-09T11:17:15;12.8;;;4.0;;
62457;SDS011;48509;52.122;5.250;2022-09-09T11:19:00;10.1;;;4.0;;
62457;SDS011;48509;52.122;5.250;2022-09-09T11:20:41;13.1;;;3.8;;
62457;SDS011;48509;52.122;5.250;2022-09-09T11:22:23;11.6;;;3.7;;
62457;SDS011;48509;52.122;5.250;2022-09-09T11:25:57;11.3;;;3.9;;
62457;SDS011;48509;52.122;5.250;2022-09-09T11:27:40;15.4;;;4.2;;
62457;SDS011;48509;52.122;5.250;2022-09-09T11:29:52;8.6;;;3.3;;
62457;SDS011;48509;52.122;5.250;2022-09-09T11:31:43;12.7;;;3.4;;
62457;SDS011;48509;52.122;5.250;2022-09-09T11:33:41;10.7;;;3.1;;
62457;SDS011;48509;52.122;5.250;2022-09-09T11:35:34;12.7;;;4.0;;
62457;SDS011;48509;52.122;5.250;2022-09-09T11:37:29;11.6;;;3.4;;
62457;SDS011;48509;52.122;5.250;2022-09-09T11:39:27;13.0;;;3.8;;
62457;SDS011;48509;52.122;5.250;2022-09-09T11:41:40;9.31;;;3.0;;
62457;SDS011;48509;52.122;5.250;2022-09-09T11:43:18;10.8;;;3.2;;
62457;SDS011;48509;52.122;5.250;2022-09-09T11:46:46;10.7;;;3.0;;
62457;SDS011;48509;52.122;5.250;2022-09-09T11:48:29;8.81;;;2.8;;
62457;SDS011;48509;52.122;5.250;2022-09-09T11:50:10;9.9;;;3.1;;
62457;SDS011;48509;52.122;5.250;2022-09-09T11:52:10;9.81;;;3.1;;
62457;SDS011;48509;52.122;5.250;2022-09-09T11:53:56;9.1;;;2.7;;
62457;SDS011;48509;52.122;5.250;2022-09-09T11:57:16;8.81;;;2.9;;
62457;SDS011;48509;52.122;5.250;2022-09-09T11:59:02;11.6;;;3.1;;
62457;SDS011;48509;52.122;5.250;2022-09-09T12:00:42;9.9;;;2.9;;
62457;SDS011;48509;52.122;5.250;2022-09-09T12:02:21;10.0;;;3.4;;
62457;SDS011;48509;52.122;5.250;2022-09-09T12:05:49;8.71;;;2.8;;
62457;SDS011;48509;52.122;5.250;2022-09-09T12:07:30;9.0;;;3.6;;
62457;SDS011;48509;52.122;5.250;2022-09-09T12:09:15;9.71;;;3.5;;
62457;SDS011;48509;52.122;5.250;2022-09-09T12:10:59;12.4;;;4.1;;
62457;SDS011;48509;52.122;5.250;2022-09-09T12:12:36;10.8;;;4.1;;
62457;SDS011;48509;52.122;5.250;2022-09-09T12:16:26;13.6;;;4.61;;
62457;SDS011;48509;52.122;5.250;2022-09-09T12:18:04;12.0;;;4.2;;
62457;SDS011;48509;52.122;5.250;2022-09-09T12:19:59;8.4;;;3.1;;
62457;SDS011;48509;52.122;5.250;2022-09-09T12:21:39;9.0;;;3.9;;
62457;SDS011;48509;52.122;5.250;2022-09-09T12:23:29;12.3;;;3.8;;
62457;SDS011;48509;52.122;5.250;2022-09-09T12:25:16;11.7;;;3.6;;
62457;SDS011;48509;52.122;5.250;2022-09-09T12:28:45;11.3;;;4.0;;
62457;SDS011;48509;52.122;5.250;2022-09-09T12:30:32;10.7;;;4.1;;
62457;SDS011;48509;52.122;5.250;2022-09-09T12:32:19;12.8;;;4.3;;
62457;SDS011;48509;52.122;5.250;2022-09-09T12:34:03;12.0;;;4.2;;
62457;SDS011;48509;52.122;5.250;2022-09-09T12:35:48;10.7;;;4.3;;
62457;SDS011;48509;52.122;5.250;2022-09-09T12:39:16;11.6;;;4.1;;
62457;SDS011;48509;52.122;5.250;2022-09-09T12:40:56;10.3;;;3.7;;
62457;SDS011;48509;52.122;5.250;2022-09-09T12:42:33;10.4;;;3.4;;
62457;SDS011;48509;52.122;5.250;2022-09-09T12:44:15;8.71;;;3.6;;
62457;SDS011;48509;52.122;5.250;2022-09-09T12:47:39;9.5;;;4.1;;
62457;SDS011;48509;52.122;5.250;2022-09-09T12:49:25;9.0;;;4.0;;
62457;SDS011;48509;52.122;5.250;2022-09-09T12:51:06;10.4;;;4.3;;
62457;SDS011;48509;52.122;5.250;2022-09-09T12:52:58;9.5;;;4.1;;
62457;SDS011;48509;52.122;5.250;2022-09-09T12:54:42;11.6;;;4.8;;